sensor_id;sensor_type;location;lat;lon;timestamp;temperature;humidity
52073;DHT22;38074;51.232;6.826;2023-04-01T00:02:53;23.70;43.40
52073;DHT22;38074;51.232;6.826;2023-04-01T00:10:11;23.70;43.40
52073;DHT22;38074;51.232;6.826;2023-04-01T00:17:27;23.70;43.40
52073;DHT22;38074;51.232;6.826;2023-04-01T00:24:42;23.70;43.40
52073;DHT22;38074;51.232;6.826;2023-04-01T00:31:58;23.70;43.40
52073;DHT22;38074;51.232;6.826;2023-04-01T00:39:13;23.70;43.30
52073;DHT22;38074;51.232;6.826;2023-04-01T00:46:29;23.70;43.30
52073;DHT22;38074;51.232;6.826;2023-04-01T00:53:49;23.70;43.40
52073;DHT22;38074;51.232;6.826;2023-04-01T01:01:06;23.70;43.40
52073;DHT22;38074;51.232;6.826;2023-04-01T01:08:58;23.70;43.30
52073;DHT22;38074;51.232;6.826;2023-04-01T01:16:28;23.70;43.30
52073;DHT22;38074;51.232;6.826;2023-04-01T01:39:05;23.70;43.30
52073;DHT22;38074;51.232;6.826;2023-04-01T01:46:23;23.70;43.30
52073;DHT22;38074;51.232;6.826;2023-04-01T01:53:40;23.70;43.30
52073;DHT22;38074;51.232;6.826;2023-04-01T02:00:59;23.60;43.20
52073;DHT22;38074;51.232;6.826;2023-04-01T02:08:33;23.70;43.20
52073;DHT22;38074;51.232;6.826;2023-04-01T02:15:54;23.60;43.10
52073;DHT22;38074;51.232;6.826;2023-04-01T02:23:12;23.70;43.20
52073;DHT22;38074;51.232;6.826;2023-04-01T02:30:29;23.60;43.10
52073;DHT22;38074;51.232;6.826;2023-04-01T02:37:46;23.60;43.10
52073;DHT22;38074;51.232;6.826;2023-04-01T02:45:04;23.70;43.20
52073;DHT22;38074;51.232;6.826;2023-04-01T02:52:20;23.60;43.10
52073;DHT22;38074;51.232;6.826;2023-04-01T02:59:36;23.60;43.10
52073;DHT22;38074;51.232;6.826;2023-04-01T03:06:51;23.60;43.10
52073;DHT22;38074;51.232;6.826;2023-04-01T03:14:07;23.70;43.20
52073;DHT22;38074;51.232;6.826;2023-04-01T03:21:23;23.60;43.10
52073;DHT22;38074;51.232;6.826;2023-04-01T03:28:39;23.70;43.10
52073;DHT22;38074;51.232;6.826;2023-04-01T03:35:54;23.60;43.10
52073;DHT22;38074;51.232;6.826;2023-04-01T03:43:10;23.60;43.10
52073;DHT22;38074;51.232;6.826;2023-04-01T03:50:27;23.60;43.10
52073;DHT22;38074;51.232;6.826;2023-04-01T03:57:42;23.60;43.10
52073;DHT22;38074;51.232;6.826;2023-04-01T04:04:58;23.60;43.10
52073;DHT22;38074;51.232;6.826;2023-04-01T04:12:14;23.60;43.00
52073;DHT22;38074;51.232;6.826;2023-04-01T04:19:32;23.60;43.10
52073;DHT22;38074;51.232;6.826;2023-04-01T04:26:49;23.60;43.10
52073;DHT22;38074;51.232;6.826;2023-04-01T04:34:04;23.60;43.10
52073;DHT22;38074;51.232;6.826;2023-04-01T04:41:20;23.60;43.00
52073;DHT22;38074;51.232;6.826;2023-04-01T04:48:37;23.60;43.00
52073;DHT22;38074;51.232;6.826;2023-04-01T04:55:52;23.60;43.00
52073;DHT22;38074;51.232;6.826;2023-04-01T05:03:09;23.60;43.10
52073;DHT22;38074;51.232;6.826;2023-04-01T05:10:25;23.60;43.00
52073;DHT22;38074;51.232;6.826;2023-04-01T05:17:40;23.60;43.10
52073;DHT22;38074;51.232;6.826;2023-04-01T05:24:56;23.60;43.10
52073;DHT22;38074;51.232;6.826;2023-04-01T05:32:11;23.60;43.00
52073;DHT22;38074;51.232;6.826;2023-04-01T05:39:27;23.60;43.00
52073;DHT22;38074;51.232;6.826;2023-04-01T05:46:42;23.60;43.10
52073;DHT22;38074;51.232;6.826;2023-04-01T05:53:58;23.60;43.00
52073;DHT22;38074;51.232;6.826;2023-04-01T06:01:13;23.60;43.00
52073;DHT22;38074;51.232;6.826;2023-04-01T06:08:31;23.60;43.00
52073;DHT22;38074;51.232;6.826;2023-04-01T06:23:22;23.50;42.90
52073;DHT22;38074;51.232;6.826;2023-04-01T06:30:41;23.60;43.10
52073;DHT22;38074;51.232;6.826;2023-04-01T06:46:12;23.50;43.00
52073;DHT22;38074;51.232;6.826;2023-04-01T06:53:49;23.60;43.10
52073;DHT22;38074;51.232;6.826;2023-04-01T07:01:10;23.60;43.10
52073;DHT22;38074;51.232;6.826;2023-04-01T07:08:29;23.50;43.00
52073;DHT22;38074;51.232;6.826;2023-04-01T07:23:31;23.60;43.10
52073;DHT22;38074;51.232;6.826;2023-04-01T07:31:13;23.50;43.10
52073;DHT22;38074;51.232;6.826;2023-04-01T07:53:58;23.60;43.10
52073;DHT22;38074;51.232;6.826;2023-04-01T08:01:27;23.60;43.00
52073;DHT22;38074;51.232;6.826;2023-04-01T08:09:08;23.50;43.10
52073;DHT22;38074;51.232;6.826;2023-04-01T08:24:06;23.50;43.10
52073;DHT22;38074;51.232;6.826;2023-04-01T08:38:57;23.60;43.10
52073;DHT22;38074;51.232;6.826;2023-04-01T08:46:34;23.50;43.10
52073;DHT22;38074;51.232;6.826;2023-04-01T09:02:04;23.50;43.10
52073;DHT22;38074;51.232;6.826;2023-04-01T09:09:51;23.50;43.10
52073;DHT22;38074;51.232;6.826;2023-04-01T09:17:36;23.60;43.20
52073;DHT22;38074;51.232;6.826;2023-04-01T09:25:20;23.50;43.10
52073;DHT22;38074;51.232;6.826;2023-04-01T09:33:11;23.60;43.20
52073;DHT22;38074;51.232;6.826;2023-04-01T10:26:38;23.50;43.10
52073;DHT22;38074;51.232;6.826;2023-04-01T10:50:05;23.50;43.20
52073;DHT22;38074;51.232;6.826;2023-04-01T11:05:38;23.50;43.20
52073;DHT22;38074;51.232;6.826;2023-04-01T11:13:09;23.50;43.20
52073;DHT22;38074;51.232;6.826;2023-04-01T11:20:59;23.50;43.10
52073;DHT22;38074;51.232;6.826;2023-04-01T11:44:11;23.50;43.50
52073;DHT22;38074;51.232;6.826;2023-04-01T11:59:44;23.50;43.30
52073;DHT22;38074;51.232;6.826;2023-04-01T12:07:35;23.50;43.30
52073;DHT22;38074;51.232;6.826;2023-04-01T12:30:08;23.50;43.30
52073;DHT22;38074;51.232;6.826;2023-04-01T12:37:49;23.50;43.40
52073;DHT22;38074;51.232;6.826;2023-04-01T12:45:30;23.50;43.40
52073;DHT22;38074;51.232;6.826;2023-04-01T12:53:15;23.50;43.30
52073;DHT22;38074;51.232;6.826;2023-04-01T13:08:17;23.50;43.40
52073;DHT22;38074;51.232;6.826;2023-04-01T13:15:49;23.50;43.40
52073;DHT22;38074;51.232;6.826;2023-04-01T13:30:26;23.50;43.40
52073;DHT22;38074;51.232;6.826;2023-04-01T13:45:23;23.50;43.40
52073;DHT22;38074;51.232;6.826;2023-04-01T14:08:20;23.50;44.10
52073;DHT22;38074;51.232;6.826;2023-04-01T14:23:27;23.50;43.40
52073;DHT22;38074;51.232;6.826;2023-04-01T14:53:30;23.50;43.50
52073;DHT22;38074;51.232;6.826;2023-04-01T15:08:26;23.50;43.50
52073;DHT22;38074;51.232;6.826;2023-04-01T15:31:14;23.50;43.50
52073;DHT22;38074;51.232;6.826;2023-04-01T15:38:40;23.50;43.50
52073;DHT22;38074;51.232;6.826;2023-04-01T16:01:31;23.50;43.50
52073;DHT22;38074;51.232;6.826;2023-04-01T16:09:07;23.50;43.60
52073;DHT22;38074;51.232;6.826;2023-04-01T16:16:53;23.50;43.50
52073;DHT22;38074;51.232;6.826;2023-04-01T16:24:19;23.50;43.50
52073;DHT22;38074;51.232;6.826;2023-04-01T16:31:55;23.50;43.60
52073;DHT22;38074;51.232;6.826;2023-04-01T16:39:42;23.50;43.50
52073;DHT22;38074;51.232;6.826;2023-04-01T16:47:12;23.50;43.50
52073;DHT22;38074;51.232;6.826;2023-04-01T16:54:43;23.50;43.60
52073;DHT22;38074;51.232;6.826;2023-04-01T17:02:10;23.50;43.60
52073;DHT22;38074;51.232;6.826;2023-04-01T17:17:29;23.50;43.60
52073;DHT22;38074;51.232;6.826;2023-04-01T17:33:11;23.50;43.60
52073;DHT22;38074;51.232;6.826;2023-04-01T18:03:12;23.50;43.60
52073;DHT22;38074;51.232;6.826;2023-04-01T18:25:44;23.50;43.60
52073;DHT22;38074;51.232;6.826;2023-04-01T18:33:04;23.50;43.70
52073;DHT22;38074;51.232;6.826;2023-04-01T18:40:25;23.50;43.70
52073;DHT22;38074;51.232;6.826;2023-04-01T18:55:47;23.50;44.30
52073;DHT22;38074;51.232;6.826;2023-04-01T19:03:23;23.50;43.70
52073;DHT22;38074;51.232;6.826;2023-04-01T19:11:06;23.40;43.70
52073;DHT22;38074;51.232;6.826;2023-04-01T19:18:30;23.50;43.60
52073;DHT22;38074;51.232;6.826;2023-04-01T19:25:59;23.50;43.70
52073;DHT22;38074;51.232;6.826;2023-04-01T19:33:48;23.50;43.70
52073;DHT22;38074;51.232;6.826;2023-04-01T19:49:06;23.50;43.70
52073;DHT22;38074;51.232;6.826;2023-04-01T19:56:39;23.50;43.70
52073;DHT22;38074;51.232;6.826;2023-04-01T20:04:16;23.50;43.70
52073;DHT22;38074;51.232;6.826;2023-04-01T20:19:02;23.50;43.70
52073;DHT22;38074;51.232;6.826;2023-04-01T20:26:26;23.40;43.60
52073;DHT22;38074;51.232;6.826;2023-04-01T20:33:58;23.50;43.70
52073;DHT22;38074;51.232;6.826;2023-04-01T21:26:25;23.40;43.60
52073;DHT22;38074;51.232;6.826;2023-04-01T21:34:28;23.40;43.60
52073;DHT22;38074;51.232;6.826;2023-04-01T21:57:05;23.50;43.60
52073;DHT22;38074;51.232;6.826;2023-04-01T22:12:04;23.50;43.60
52073;DHT22;38074;51.232;6.826;2023-04-01T22:27:01;23.40;43.50
52073;DHT22;38074;51.232;6.826;2023-04-01T22:49:40;23.40;43.40
52073;DHT22;38074;51.232;6.826;2023-04-01T22:57:04;23.40;43.40
52073;DHT22;38074;51.232;6.826;2023-04-01T23:04:33;23.40;43.40
52073;DHT22;38074;51.232;6.826;2023-04-01T23:12:13;23.40;43.40
52073;DHT22;38074;51.232;6.826;2023-04-01T23:19:36;23.40;43.30
52073;DHT22;38074;51.232;6.826;2023-04-01T23:27:05;23.40;43.30
52073;DHT22;38074;51.232;6.826;2023-04-01T23:34:28;23.40;43.30
52073;DHT22;38074;51.232;6.826;2023-04-01T23:41:45;23.40;43.30
52073;DHT22;38074;51.232;6.826;2023-04-01T23:49:02;23.40;43.30
52073;DHT22;38074;51.232;6.826;2023-04-01T23:56:18;23.40;43.30
